createdAt,value
2019-02-18T00:00:38.699Z,96619.30
2019-02-18T00:03:07.959Z,96610.80
2019-02-18T00:05:36.247Z,96610.75
2019-02-18T00:08:04.503Z,96611.53
2019-02-18T00:10:32.796Z,96610.67
2019-02-18T00:13:01.094Z,96614.85
2019-02-18T00:15:29.449Z,96611.45
2019-02-18T00:17:57.716Z,96616.88
2019-02-18T00:20:26.007Z,96615.63
2019-02-18T00:22:54.267Z,96613.06
2019-02-18T00:25:22.542Z,96612.78
2019-02-18T00:27:50.834Z,96604.50
2019-02-18T00:30:19.163Z,96612.78
2019-02-18T00:32:47.417Z,96617.37
2019-02-18T00:35:15.684Z,96623.27
2019-02-18T00:37:43.969Z,96624.97
2019-02-18T00:40:12.225Z,96620.61
2019-02-18T00:42:40.513Z,96619.14
2019-02-18T00:45:13.349Z,96620.40
2019-02-18T00:47:41.646Z,96614.16
2019-02-18T00:50:10.538Z,96613.62
2019-02-18T00:52:38.829Z,96609.52
2019-02-18T00:55:08.655Z,96608.92
2019-02-18T00:57:36.925Z,96602.63
2019-02-18T01:00:08.955Z,96596.34
2019-02-18T01:02:37.306Z,96595.89
2019-02-18T01:05:06.500Z,96588.53
2019-02-18T01:07:35.342Z,96588.58
2019-02-18T01:10:04.339Z,96589.19
2019-02-18T01:12:32.604Z,96584.10
2019-02-18T01:15:00.873Z,96583.62
2019-02-18T01:17:29.171Z,96583.62
2019-02-18T01:19:57.435Z,96582.44
2019-02-18T01:22:25.716Z,96574.89
2019-02-18T01:24:53.985Z,96573.67
2019-02-18T01:27:22.276Z,96569.53
2019-02-18T01:29:50.569Z,96565.27
2019-02-18T01:32:18.845Z,96561.97
2019-02-18T01:34:47.163Z,96554.02
2019-02-18T01:37:15.418Z,96559.18
2019-02-18T01:39:43.677Z,96555.48
2019-02-18T01:42:11.955Z,96547.12
2019-02-18T01:44:40.256Z,96548.58
2019-02-18T01:47:08.525Z,96548.77
2019-02-18T01:49:36.795Z,96543.86
2019-02-18T01:52:05.082Z,96547.84
2019-02-18T01:54:33.345Z,96548.90
2019-02-18T01:57:01.630Z,96542.08
2019-02-18T01:59:29.904Z,96547.15
2019-02-18T02:01:58.197Z,96542.84
2019-02-18T02:04:26.496Z,96549.33
2019-02-18T02:06:54.870Z,96541.16
2019-02-18T02:09:23.130Z,96547.25
2019-02-18T02:11:51.420Z,96541.23
2019-02-18T02:14:19.682Z,96542.00
2019-02-18T02:16:47.979Z,96542.20
2019-02-18T02:19:16.278Z,96538.34
2019-02-18T02:21:44.555Z,96529.59
2019-02-18T02:24:12.839Z,96524.40
2019-02-18T02:26:41.137Z,96525.52
2019-02-18T02:29:09.402Z,96526.78
2019-02-18T02:31:37.699Z,96528.17
2019-02-18T02:34:06.010Z,96526.06
2019-02-18T02:36:34.273Z,96520.25
2019-02-18T02:39:02.583Z,96521.64
2019-02-18T02:41:30.844Z,96520.47
2019-02-18T02:43:59.105Z,96517.47
2019-02-18T02:46:27.418Z,96514.55
2019-02-18T02:48:55.680Z,96519.34
2019-02-18T02:51:23.938Z,96518.61
2019-02-18T02:53:52.222Z,96517.97
2019-02-18T02:56:20.506Z,96518.95
2019-02-18T02:58:48.790Z,96513.14
2019-02-18T03:01:17.071Z,96509.82
2019-02-18T03:03:45.338Z,96513.55
2019-02-18T03:06:13.626Z,96515.98
2019-02-18T03:08:41.902Z,96519.67
2019-02-18T03:11:10.235Z,96522.03
2019-02-18T03:13:38.500Z,96520.20
2019-02-18T03:16:07.134Z,96523.00
2019-02-18T03:18:35.441Z,96520.89
2019-02-18T03:21:03.727Z,96520.47
2019-02-18T03:23:32.026Z,96520.58
2019-02-18T03:26:00.296Z,96521.53
2019-02-18T03:31:30.226Z,96525.18
2019-02-18T03:34:04.443Z,96522.17
2019-02-18T03:36:32.715Z,96525.18
2019-02-18T03:39:00.984Z,96529.48
2019-02-18T03:41:29.392Z,96522.07
2019-02-18T03:43:57.656Z,96522.28
2019-02-18T03:46:25.916Z,96517.98
2019-02-18T03:48:54.216Z,96519.77
2019-02-18T03:51:22.468Z,96515.46
2019-02-18T03:53:50.771Z,96517.78
2019-02-18T03:56:19.052Z,96518.37
2019-02-18T03:58:47.315Z,96510.52
2019-02-18T04:01:15.623Z,96521.08
2019-02-18T04:03:43.885Z,96526.48
2019-02-18T04:06:12.189Z,96523.30
2019-02-18T04:08:43.215Z,96519.16
2019-02-18T04:11:10.538Z,96523.09
2019-02-18T04:13:38.795Z,96522.69
2019-02-18T04:16:07.107Z,96515.72
2019-02-18T04:18:35.404Z,96516.56
2019-02-18T04:21:03.738Z,96518.27
2019-02-18T04:23:32.013Z,96515.64
2019-02-18T04:26:00.285Z,96519.25
2019-02-18T04:28:28.584Z,96518.16
2019-02-18T04:30:56.893Z,96519.95
2019-02-18T04:33:25.131Z,96516.31
2019-02-18T04:35:53.437Z,96514.73
2019-02-18T04:40:59.022Z,96511.48
2019-02-18T04:43:27.322Z,96511.39
2019-02-18T04:45:55.582Z,96509.81
2019-02-18T04:48:23.952Z,96516.59
2019-02-18T04:50:52.180Z,96509.89
2019-02-18T04:53:20.441Z,96508.23
2019-02-18T04:55:48.726Z,96502.75
2019-02-18T04:58:16.999Z,96505.42
2019-02-18T05:00:45.277Z,96507.09
2019-02-18T05:03:13.563Z,96506.95
2019-02-18T05:05:41.825Z,96507.81
2019-02-18T05:08:10.093Z,96506.47
2019-02-18T05:10:38.374Z,96510.24
2019-02-18T05:13:06.678Z,96507.00
2019-02-18T05:15:34.963Z,96507.41
2019-02-18T05:18:03.247Z,96509.06
2019-02-18T05:20:31.532Z,96505.10
2019-02-18T05:22:59.794Z,96503.18
2019-02-18T05:25:28.069Z,96503.95
2019-02-18T05:27:56.335Z,96516.61
2019-02-18T05:30:24.642Z,96512.44
2019-02-18T05:32:52.903Z,96522.05
2019-02-18T05:35:21.201Z,96524.16
2019-02-18T05:37:49.459Z,96515.27
2019-02-18T05:40:17.781Z,96519.58
2019-02-18T05:42:46.111Z,96522.98
2019-02-18T05:45:14.380Z,96523.76
2019-02-18T05:47:42.671Z,96519.77
2019-02-18T05:50:10.959Z,96515.38
2019-02-18T05:52:39.219Z,96521.30
2019-02-18T05:55:07.780Z,96518.46
2019-02-18T05:57:36.046Z,96523.73
2019-02-18T06:00:10.078Z,96523.11
2019-02-18T06:02:38.371Z,96526.96
2019-02-18T06:05:07.511Z,96532.31
2019-02-18T06:07:35.811Z,96531.19
2019-02-18T06:10:06.527Z,96535.77
2019-02-18T06:12:34.983Z,96536.86
2019-02-18T06:15:03.314Z,96541.65
2019-02-18T06:17:31.686Z,96541.65
2019-02-18T06:19:59.951Z,96539.95
2019-02-18T06:22:28.250Z,96539.88
2019-02-18T06:24:56.542Z,96543.91
2019-02-18T06:27:24.809Z,96544.44
2019-02-18T06:29:53.086Z,96543.50
2019-02-18T06:32:21.375Z,96546.47
2019-02-18T06:34:49.637Z,96548.85
2019-02-18T06:37:17.918Z,96548.36
2019-02-18T06:39:46.252Z,96552.97
2019-02-18T06:42:14.515Z,96554.41
2019-02-18T06:44:44.417Z,96550.59
2019-02-18T06:47:12.779Z,96555.92
2019-02-18T06:49:41.051Z,96554.11
2019-02-18T06:52:09.353Z,96551.72
2019-02-18T06:54:37.609Z,96559.57
2019-02-18T06:57:13.291Z,96558.05
2019-02-18T06:59:43.232Z,96559.11
2019-02-18T07:02:13.134Z,96560.53
2019-02-18T07:04:43.030Z,96561.69
2019-02-18T07:07:15.700Z,96565.35
2019-02-18T07:09:51.924Z,96563.25
2019-02-18T07:12:27.842Z,96564.85
2019-02-18T07:14:56.101Z,96571.03
2019-02-18T07:17:24.381Z,96564.17
2019-02-18T07:19:52.686Z,96567.42
2019-02-18T07:22:20.948Z,96559.42
2019-02-18T07:24:49.213Z,96554.23
2019-02-18T07:27:17.535Z,96555.31
2019-02-18T07:29:45.789Z,96554.30
2019-02-18T07:32:14.053Z,96559.09
2019-02-18T07:34:42.339Z,96552.21
2019-02-18T07:37:10.591Z,96557.70
2019-02-18T07:39:38.883Z,96553.59
2019-02-18T07:42:07.155Z,96552.61
2019-02-18T07:44:35.414Z,96554.52
2019-02-18T07:47:03.703Z,96556.97
2019-02-18T07:49:31.974Z,96557.09
2019-02-18T07:52:00.241Z,96557.50
2019-02-18T07:54:28.517Z,96553.89
2019-02-18T07:56:56.802Z,96546.11
2019-02-18T07:59:25.137Z,96545.70
2019-02-18T08:01:53.393Z,96538.44
2019-02-18T08:04:21.644Z,96538.44
2019-02-18T08:06:49.975Z,96539.63
2019-02-18T08:09:18.241Z,96538.39
2019-02-18T08:11:46.506Z,96535.27
2019-02-18T08:14:14.809Z,96536.14
2019-02-18T08:16:43.068Z,96538.16
2019-02-18T08:19:11.352Z,96533.60
2019-02-18T08:21:39.650Z,96532.79
2019-02-18T08:24:07.909Z,96534.05
2019-02-18T08:26:36.165Z,96529.23
2019-02-18T08:29:04.457Z,96534.86
2019-02-18T08:31:32.718Z,96532.00
2019-02-18T08:34:01.013Z,96529.80
2019-02-18T08:36:29.301Z,96526.20
2019-02-18T08:38:57.572Z,96526.72
2019-02-18T08:41:25.840Z,96530.05
2019-02-18T08:43:54.166Z,96527.41
2019-02-18T08:46:22.424Z,96530.47
2019-02-18T08:48:50.676Z,96535.14
2019-02-18T08:51:18.946Z,96529.30
2019-02-18T08:53:47.986Z,96530.99
2019-02-18T08:56:16.370Z,96528.36
2019-02-18T08:58:44.663Z,96524.80
2019-02-18T09:01:12.925Z,96520.03
2019-02-18T09:03:41.200Z,96519.69
2019-02-18T09:06:09.481Z,96518.89
2019-02-18T09:08:37.774Z,96524.37
2019-02-18T09:11:06.071Z,96529.95
2019-02-18T09:13:34.335Z,96530.52
2019-02-18T09:16:02.640Z,96523.69
2019-02-18T09:18:30.899Z,96529.60
2019-02-18T09:20:59.226Z,96524.59
2019-02-18T09:23:32.101Z,96527.02
2019-02-18T09:26:00.438Z,96526.65
2019-02-18T09:28:28.740Z,96529.91
2019-02-18T09:30:57.350Z,96529.73
2019-02-18T09:33:25.630Z,96529.88
2019-02-18T09:40:08.098Z,96528.39
2019-02-18T09:42:36.374Z,96542.00
2019-02-18T09:45:06.952Z,96543.45
2019-02-18T09:47:35.207Z,96545.44
2019-02-18T09:50:05.033Z,96543.09
2019-02-18T09:52:33.287Z,96539.70
2019-02-18T09:55:01.550Z,96534.22
2019-02-18T09:57:29.848Z,96531.15
2019-02-18T09:59:58.139Z,96528.52
2019-02-18T10:02:26.388Z,96524.67
2019-02-18T10:04:54.659Z,96527.39
2019-02-18T10:07:22.951Z,96517.02
2019-02-18T10:09:52.349Z,96516.47
2019-02-18T10:12:20.647Z,96520.93
2019-02-18T10:14:48.902Z,96518.41
2019-02-18T10:17:17.197Z,96512.70
2019-02-18T10:19:45.460Z,96511.25
2019-02-18T10:22:13.790Z,96513.05
2019-02-18T10:24:50.511Z,96513.81
2019-02-18T10:27:12.078Z,96506.64
2019-02-18T10:29:40.344Z,96498.66
2019-02-18T10:32:08.647Z,96497.55
2019-02-18T10:34:36.905Z,96494.27
2019-02-18T10:37:05.201Z,96487.91
2019-02-18T10:39:33.494Z,96482.92
2019-02-18T10:42:01.745Z,96479.30
2019-02-18T10:44:30.035Z,96471.21
2019-02-18T10:46:58.322Z,96471.44
2019-02-18T10:49:26.585Z,96466.25
2019-02-18T10:51:54.874Z,96455.53
2019-02-18T10:54:23.131Z,96460.88
2019-02-18T10:56:51.418Z,96459.44
2019-02-18T10:59:19.667Z,96457.17
2019-02-18T11:01:47.957Z,96452.23
2019-02-18T11:04:16.223Z,96452.19
2019-02-18T11:06:44.895Z,96450.03
2019-02-18T11:09:13.238Z,96439.14
2019-02-18T11:11:41.534Z,96438.67
2019-02-18T11:14:09.786Z,96427.98
2019-02-18T11:16:38.360Z,96429.09
2019-02-18T11:19:06.630Z,96429.39
2019-02-18T11:21:34.923Z,96427.91
2019-02-18T11:24:03.189Z,96423.99
2019-02-18T11:26:31.481Z,96412.85
2019-02-18T11:28:59.748Z,96411.11
2019-02-18T11:31:28.321Z,96405.17
2019-02-18T11:33:56.618Z,96396.33
2019-02-18T11:36:24.890Z,96392.14
2019-02-18T11:38:53.154Z,96385.80
2019-02-18T11:41:27.472Z,96383.93
2019-02-18T11:43:51.446Z,96374.84
2019-02-18T11:46:20.037Z,96370.81
2019-02-18T11:48:48.306Z,96363.02
2019-02-18T11:51:16.580Z,96359.96
2019-02-18T11:53:44.873Z,96361.77
2019-02-18T11:56:13.206Z,96357.03
2019-02-18T11:58:41.499Z,96345.42
2019-02-18T12:01:09.844Z,96337.47
2019-02-18T12:03:38.140Z,96341.40
2019-02-18T12:06:06.443Z,96335.59
2019-02-18T12:08:34.721Z,96329.30
2019-02-18T12:11:02.992Z,96320.48
2019-02-18T12:13:31.288Z,96323.73
2019-02-18T12:15:59.564Z,96321.38
2019-02-18T12:18:28.240Z,96309.98
2019-02-18T12:20:56.547Z,96303.94
2019-02-18T12:23:24.812Z,96302.97
2019-02-18T12:25:53.125Z,96297.69
2019-02-18T12:28:21.407Z,96293.25
2019-02-18T12:30:49.746Z,96294.98
2019-02-18T12:33:18.034Z,96287.66
2019-02-18T12:35:46.458Z,96285.05
2019-02-18T12:38:17.170Z,96276.77
2019-02-18T12:40:44.747Z,96271.59
2019-02-18T12:43:13.013Z,96261.70
2019-02-18T12:45:41.304Z,96264.14
2019-02-18T12:48:09.583Z,96263.92
2019-02-18T12:50:38.149Z,96262.41
2019-02-18T12:53:06.550Z,96255.94
2019-02-18T12:55:35.036Z,96253.08
2019-02-18T12:58:03.586Z,96250.07
2019-02-18T13:00:32.017Z,96251.34
2019-02-18T13:03:00.443Z,96248.99
2019-02-18T13:05:28.722Z,96251.75
2019-02-18T13:07:56.995Z,96251.37
2019-02-18T13:10:34.675Z,96249.84
2019-02-18T13:12:55.480Z,96246.61
2019-02-18T13:15:23.737Z,96241.27
2019-02-18T13:17:52.032Z,96249.78
2019-02-18T13:20:20.325Z,96247.55
2019-02-18T13:22:48.591Z,96249.34
2019-02-18T13:25:16.889Z,96251.52
2019-02-18T13:27:45.435Z,96253.75
2019-02-18T13:30:16.115Z,96252.07
2019-02-18T13:32:44.370Z,96246.80
2019-02-18T13:35:12.633Z,96248.43
2019-02-18T13:37:40.959Z,96251.41
2019-02-18T13:40:09.217Z,96246.17
2019-02-18T13:42:37.587Z,96250.63
2019-02-18T13:45:07.894Z,96251.06
2019-02-18T13:47:36.196Z,96248.91
2019-02-18T13:50:09.894Z,96249.58
2019-02-18T13:52:38.196Z,96250.00
2019-02-18T13:55:08.709Z,96251.48
2019-02-18T13:57:37.000Z,96248.80
2019-02-18T14:00:08.518Z,96247.21
2019-02-18T14:02:36.824Z,96241.86
2019-02-18T14:05:06.722Z,96251.18
2019-02-18T14:07:36.287Z,96251.20
2019-02-18T14:10:06.024Z,96251.53
2019-02-18T14:12:34.660Z,96246.66
2019-02-18T14:15:02.957Z,96244.45
2019-02-18T14:17:31.256Z,96238.32
2019-02-18T14:19:59.553Z,96246.02
2019-02-18T14:22:27.853Z,96246.87
2019-02-18T14:24:56.120Z,96251.19
2019-02-18T14:27:24.418Z,96250.22
2019-02-18T14:29:52.853Z,96247.12
2019-02-18T14:32:21.134Z,96251.38
2019-02-18T14:34:49.406Z,96249.98
2019-02-18T14:37:17.685Z,96244.45
2019-02-18T14:39:46.017Z,96247.42
2019-02-18T14:42:14.319Z,96251.80
2019-02-18T14:44:43.089Z,96249.88
2019-02-18T14:47:11.464Z,96249.82
2019-02-18T14:49:39.798Z,96247.36
2019-02-18T14:52:08.061Z,96249.34
2019-02-18T14:54:36.325Z,96258.64
2019-02-18T14:57:04.629Z,96256.34
2019-02-18T14:59:32.911Z,96253.20
2019-02-18T15:02:01.500Z,96251.51
2019-02-18T15:04:29.774Z,96253.44
2019-02-18T15:06:58.042Z,96254.88
2019-02-18T15:09:26.352Z,96262.09
2019-02-18T15:11:54.662Z,96261.98
2019-02-18T15:14:22.931Z,96263.11
2019-02-18T15:16:51.573Z,96264.11
2019-02-18T15:19:19.869Z,96256.19
2019-02-18T15:21:48.161Z,96260.58
2019-02-18T15:24:16.418Z,96260.67
2019-02-18T15:26:44.785Z,96257.41
2019-02-18T15:29:13.047Z,96259.31
2019-02-18T15:31:41.349Z,96261.91
2019-02-18T15:34:09.779Z,96255.66
2019-02-18T15:36:38.044Z,96260.36
2019-02-18T15:39:06.333Z,96266.41
2019-02-18T15:41:34.578Z,96257.70
2019-02-18T15:44:02.871Z,96254.50
2019-02-18T15:46:31.136Z,96253.70
2019-02-18T15:48:59.796Z,96257.09
2019-02-18T15:51:28.060Z,96256.48
2019-02-18T15:53:56.338Z,96262.84
2019-02-18T15:56:24.593Z,96258.13
2019-02-18T15:58:52.888Z,96268.67
2019-02-18T16:01:21.209Z,96266.73
2019-02-18T16:03:49.504Z,96267.74
2019-02-18T16:06:17.981Z,96273.74
2019-02-18T16:08:46.238Z,96275.00
2019-02-18T16:11:14.534Z,96274.10
2019-02-18T16:13:42.809Z,96277.79
2019-02-18T16:16:11.069Z,96274.49
2019-02-18T16:18:39.366Z,96274.26
2019-02-18T16:21:07.652Z,96276.98
2019-02-18T16:23:35.946Z,96278.91
2019-02-18T16:26:04.212Z,96280.89
2019-02-18T16:28:32.501Z,96281.16
2019-02-18T16:31:00.863Z,96276.27
2019-02-18T16:33:29.135Z,96282.59
2019-02-18T16:35:57.465Z,96284.50
2019-02-18T16:38:25.739Z,96277.62
2019-02-18T16:40:54.036Z,96278.59
2019-02-18T16:43:22.648Z,96274.59
2019-02-18T16:45:50.943Z,96275.16
2019-02-18T16:48:19.482Z,96280.89
2019-02-18T16:50:47.784Z,96286.95
2019-02-18T16:53:16.458Z,96291.44
2019-02-18T16:55:44.738Z,96284.78
2019-02-18T16:58:12.998Z,96288.87
2019-02-18T17:00:41.473Z,96287.11
2019-02-18T17:03:09.721Z,96292.64
2019-02-18T17:05:38.013Z,96293.45
2019-02-18T17:08:06.270Z,96293.17
2019-02-18T17:10:34.559Z,96295.97
2019-02-18T17:13:08.125Z,96294.14
2019-02-18T17:15:32.853Z,96288.95
2019-02-18T17:18:01.174Z,96292.15
2019-02-18T17:20:29.436Z,96287.36
2019-02-18T17:22:57.695Z,96294.73
2019-02-18T17:25:27.045Z,96293.38
2019-02-18T17:27:55.349Z,96289.11
2019-02-18T17:30:23.608Z,96284.44
2019-02-18T17:32:51.907Z,96285.58
2019-02-18T17:35:20.327Z,96292.31
2019-02-18T17:37:48.587Z,96292.00
2019-02-18T17:40:16.853Z,96287.65
2019-02-18T17:42:45.470Z,96285.38
2019-02-18T17:45:17.805Z,96282.80
2019-02-18T17:47:46.066Z,96282.73
2019-02-18T17:50:16.398Z,96282.14
2019-02-18T17:52:44.854Z,96282.27
2019-02-18T17:55:15.080Z,96275.52
2019-02-18T17:57:43.524Z,96275.41
2019-02-18T18:00:17.775Z,96270.24
2019-02-18T18:02:46.050Z,96271.75
2019-02-18T18:05:14.396Z,96272.52
2019-02-18T18:07:42.711Z,96270.27
2019-02-18T18:10:12.410Z,96272.35
2019-02-18T18:12:40.710Z,96267.84
2019-02-18T18:15:13.950Z,96269.91
2019-02-18T18:17:42.198Z,96263.13
2019-02-18T18:20:14.196Z,96266.09
2019-02-18T18:22:42.458Z,96265.92
2019-02-18T18:25:12.409Z,96262.31
2019-02-18T18:27:40.686Z,96261.05
2019-02-18T18:30:15.166Z,96269.54
2019-02-18T18:32:45.242Z,96269.95
2019-02-18T18:35:14.018Z,96267.64
2019-02-18T18:37:42.581Z,96273.44
2019-02-18T18:40:14.576Z,96270.34
2019-02-18T18:42:42.833Z,96278.62
2019-02-18T18:45:15.533Z,96278.38
2019-02-18T18:47:44.024Z,96273.58
2019-02-18T18:50:14.747Z,96273.51
2019-02-18T18:52:43.719Z,96274.77
2019-02-18T18:55:12.138Z,96275.17
2019-02-18T18:57:40.911Z,96276.54
2019-02-18T19:00:15.513Z,96277.56
2019-02-18T19:02:43.994Z,96274.13
2019-02-18T19:05:12.642Z,96275.34
2019-02-18T19:07:41.265Z,96280.89
2019-02-18T19:10:10.102Z,96287.09
2019-02-18T19:12:38.516Z,96279.56
2019-02-18T19:15:12.514Z,96280.27
2019-02-18T19:17:40.762Z,96283.30
2019-02-18T19:20:11.604Z,96278.08
2019-02-18T19:22:40.057Z,96282.23
2019-02-18T19:25:09.954Z,96286.56
2019-02-18T19:27:38.241Z,96284.04
2019-02-18T19:30:09.896Z,96284.75
2019-02-18T19:32:38.178Z,96283.31
2019-02-18T19:35:08.145Z,96282.53
2019-02-18T19:37:36.420Z,96281.87
2019-02-18T19:40:41.146Z,96285.36
2019-02-18T19:43:09.412Z,96282.33
2019-02-18T19:45:37.709Z,96278.22
2019-02-18T19:48:05.976Z,96280.33
2019-02-18T19:50:34.232Z,96281.59
2019-02-18T19:53:02.557Z,96281.84
2019-02-18T19:55:30.805Z,96280.08
2019-02-18T19:57:59.333Z,96285.85
2019-02-18T20:00:27.634Z,96275.53
2019-02-18T20:02:55.897Z,96277.41
2019-02-18T20:05:24.203Z,96274.30
2019-02-18T20:07:52.480Z,96269.56
2019-02-18T20:10:20.737Z,96276.64
2019-02-18T20:12:49.034Z,96270.67
2019-02-18T20:15:17.346Z,96268.38
2019-02-18T20:17:45.618Z,96271.16
2019-02-18T20:20:16.292Z,96272.64
2019-02-18T20:22:44.582Z,96272.52
2019-02-18T20:25:12.907Z,96274.78
2019-02-18T20:27:41.197Z,96270.81
2019-02-18T20:30:12.558Z,96275.20
2019-02-18T20:32:40.840Z,96275.46
2019-02-18T20:35:10.382Z,96270.90
2019-02-18T20:37:39.012Z,96268.59
2019-02-18T20:40:08.728Z,96268.73
2019-02-18T20:42:37.014Z,96264.84
2019-02-18T20:45:08.596Z,96264.28
2019-02-18T20:47:37.229Z,96262.05
2019-02-18T20:50:08.139Z,96259.34
2019-02-18T20:52:36.861Z,96263.03
2019-02-18T20:55:07.554Z,96261.33
2019-02-18T20:57:36.499Z,96259.67
2019-02-18T21:00:08.260Z,96260.40
2019-02-18T21:02:36.813Z,96257.27
2019-02-18T21:05:05.832Z,96259.27
2019-02-18T21:07:34.310Z,96256.22
2019-02-18T21:10:02.627Z,96264.37
2019-02-18T21:12:31.701Z,96255.89
2019-02-18T21:15:00.292Z,96256.42
2019-02-18T21:17:28.578Z,96249.53
2019-02-18T21:19:56.891Z,96256.30
2019-02-18T21:22:25.162Z,96247.88
2019-02-18T21:24:53.460Z,96252.24
2019-02-18T21:27:22.115Z,96249.55
2019-02-18T21:29:50.382Z,96245.41
2019-02-18T21:32:18.683Z,96250.52
2019-02-18T21:34:46.954Z,96250.92
2019-02-18T21:37:15.259Z,96249.27
2019-02-18T21:39:43.535Z,96248.81
2019-02-18T21:42:11.884Z,96246.30
2019-02-18T21:44:40.235Z,96240.58
2019-02-18T21:47:08.561Z,96239.14
2019-02-18T21:49:36.805Z,96243.84
2019-02-18T21:52:05.107Z,96246.55
2019-02-18T21:54:33.405Z,96238.67
2019-02-18T21:57:01.668Z,96241.38
2019-02-18T21:59:30.354Z,96238.58
2019-02-18T22:01:58.623Z,96235.80
2019-02-18T22:04:26.882Z,96232.66
2019-02-18T22:06:55.153Z,96235.66
2019-02-18T22:09:23.447Z,96232.80
2019-02-18T22:11:51.749Z,96234.44
2019-02-18T22:14:20.048Z,96232.39
2019-02-18T22:16:48.587Z,96232.98
2019-02-18T22:19:16.864Z,96235.17
2019-02-18T22:21:45.138Z,96232.25
2019-02-18T22:24:13.412Z,96229.66
2019-02-18T22:26:41.707Z,96231.39
2019-02-18T22:29:09.991Z,96228.06
2019-02-18T22:31:38.257Z,96230.52
2019-02-18T22:34:07.013Z,96229.77
2019-02-18T22:36:35.266Z,96231.17
2019-02-18T22:39:04.768Z,96229.51
2019-02-18T22:41:33.062Z,96233.34
2019-02-18T22:44:01.326Z,96226.72
2019-02-18T22:46:29.639Z,96229.09
2019-02-18T22:48:57.922Z,96235.61
2019-02-18T22:51:26.511Z,96230.54
2019-02-18T22:53:54.775Z,96233.43
2019-02-18T22:56:23.102Z,96225.54
2019-02-18T22:58:51.393Z,96230.64
2019-02-18T23:01:20.965Z,96228.13
2019-02-18T23:03:49.331Z,96228.20
2019-02-18T23:06:17.642Z,96228.98
2019-02-18T23:08:45.900Z,96225.54
2019-02-18T23:11:14.201Z,96231.05
2019-02-18T23:13:42.474Z,96222.28
2019-02-18T23:16:10.757Z,96223.09
2019-02-18T23:18:39.066Z,96225.20
2019-02-18T23:21:07.331Z,96225.20
2019-02-18T23:23:35.624Z,96220.91
2019-02-18T23:26:03.912Z,96217.13
2019-02-18T23:28:32.169Z,96216.69
2019-02-18T23:31:00.469Z,96217.06
2019-02-18T23:33:28.766Z,96216.62
2019-02-18T23:35:57.018Z,96218.84
2019-02-18T23:38:25.309Z,96210.91
2019-02-18T23:40:55.347Z,96214.28
2019-02-18T23:43:23.747Z,96210.50
2019-02-18T23:45:52.035Z,96211.36
2019-02-18T23:48:20.288Z,96210.91
2019-02-18T23:50:48.593Z,96210.16
2019-02-18T23:53:16.840Z,96212.69
2019-02-18T23:55:45.114Z,96207.98
2019-02-18T23:58:13.390Z,96207.47
